createdAt,value
2018-10-19T00:00:20.235Z,34.60
2018-10-19T00:02:48.671Z,39.57
2018-10-19T00:05:17.218Z,35.37
2018-10-19T00:07:45.750Z,38.43
2018-10-19T00:10:14.203Z,38.20
2018-10-19T00:12:42.644Z,35.73
2018-10-19T00:15:11.282Z,39.13
2018-10-19T00:17:39.908Z,39.23
2018-10-19T00:20:08.672Z,39.70
2018-10-19T00:22:37.122Z,36.20
2018-10-19T00:25:06.150Z,37.40
2018-10-19T00:27:34.720Z,38.80
2018-10-19T00:30:03.172Z,36.90
2018-10-19T00:32:31.683Z,38.53
2018-10-19T00:35:00.211Z,38.93
2018-10-19T00:37:29.316Z,38.20
2018-10-19T00:39:57.775Z,43.90
2018-10-19T00:42:26.224Z,44.20
2018-10-19T00:44:54.784Z,41.73
2018-10-19T00:47:23.358Z,38.63
2018-10-19T00:49:51.862Z,37.00
2018-10-19T00:52:20.361Z,38.67
2018-10-19T00:54:48.808Z,40.07
2018-10-19T00:57:17.354Z,41.37
2018-10-19T00:59:46.270Z,36.67
2018-10-19T01:02:14.752Z,37.93
2018-10-19T01:04:43.159Z,38.80
2018-10-19T01:07:11.679Z,35.50
2018-10-19T01:09:40.103Z,37.90
2018-10-19T01:12:08.583Z,34.00
2018-10-19T01:14:37.060Z,34.97
2018-10-19T01:17:05.698Z,37.50
2018-10-19T01:19:34.247Z,34.07
2018-10-19T01:22:03.444Z,37.00
2018-10-19T01:24:31.874Z,34.97
2018-10-19T01:27:00.401Z,32.30
2018-10-19T01:29:28.996Z,40.63
2018-10-19T01:31:57.535Z,37.90
2018-10-19T01:34:26.018Z,41.77
2018-10-19T01:36:54.489Z,37.13
2018-10-19T01:39:22.939Z,40.63
2018-10-19T01:41:51.414Z,42.27
2018-10-19T01:44:19.869Z,40.17
2018-10-19T01:46:49.778Z,41.10
2018-10-19T01:49:19.693Z,40.60
2018-10-19T01:51:48.327Z,45.00
2018-10-19T01:54:16.772Z,40.80
2018-10-19T01:56:45.228Z,40.90
2018-10-19T01:59:13.819Z,41.77
2018-10-19T02:01:42.391Z,41.13
2018-10-19T02:04:11.120Z,36.13
2018-10-19T02:06:39.557Z,41.40
2018-10-19T02:09:08.756Z,42.17
2018-10-19T02:11:37.311Z,42.07
2018-10-19T02:14:05.947Z,40.33
2018-10-19T02:16:34.547Z,40.73
2018-10-19T02:19:02.986Z,44.17
2018-10-19T02:21:31.431Z,40.27
2018-10-19T02:23:59.897Z,41.13
2018-10-19T02:26:28.440Z,41.63
2018-10-19T02:28:56.915Z,37.33
2018-10-19T02:31:25.576Z,40.70
2018-10-19T02:33:54.065Z,37.57
2018-10-19T02:36:22.560Z,40.30
2018-10-19T02:38:51.013Z,39.93
2018-10-19T02:41:19.555Z,36.20
2018-10-19T02:43:48.079Z,38.37
2018-10-19T02:46:16.707Z,39.50
2018-10-19T02:48:45.185Z,42.07
2018-10-19T02:51:13.851Z,40.00
2018-10-19T02:53:42.467Z,41.83
2018-10-19T02:56:11.411Z,37.23
2018-10-19T02:58:39.877Z,43.10
2018-10-19T03:01:08.309Z,44.07
2018-10-19T03:03:36.811Z,39.47
2018-10-19T03:06:05.575Z,45.47
2018-10-19T03:08:34.063Z,41.93
2018-10-19T03:11:02.569Z,47.03
2018-10-19T03:13:31.258Z,43.23
2018-10-19T03:15:59.739Z,45.73
2018-10-19T03:18:28.258Z,42.70
2018-10-19T03:20:56.744Z,44.27
2018-10-19T03:23:25.485Z,44.00
2018-10-19T03:25:53.943Z,43.13
2018-10-19T03:28:22.447Z,46.57
2018-10-19T03:30:50.944Z,45.20
2018-10-19T03:33:19.672Z,47.17
2018-10-19T03:35:48.178Z,49.67
2018-10-19T03:38:16.613Z,42.40
2018-10-19T03:40:45.118Z,49.30
2018-10-19T03:43:13.562Z,46.13
2018-10-19T03:45:42.080Z,45.53
2018-10-19T03:48:10.562Z,45.07
2018-10-19T03:50:39.043Z,45.93
2018-10-19T03:53:07.680Z,53.57
2018-10-19T03:55:36.303Z,43.93
2018-10-19T03:58:04.917Z,45.57
2018-10-19T04:00:33.359Z,48.43
2018-10-19T04:03:01.925Z,46.70
2018-10-19T04:05:30.516Z,47.70
2018-10-19T04:07:59.019Z,46.33
2018-10-19T04:10:27.456Z,49.60
2018-10-19T04:12:55.893Z,48.70
2018-10-19T04:15:24.725Z,48.83
2018-10-19T04:17:53.254Z,48.00
2018-10-19T04:20:21.841Z,46.33
2018-10-19T04:22:54.565Z,46.83
2018-10-19T04:25:23.319Z,44.67
2018-10-19T04:27:51.798Z,46.30
2018-10-19T04:30:20.208Z,49.07
2018-10-19T04:32:48.650Z,47.77
2018-10-19T04:35:17.318Z,48.83
2018-10-19T04:37:46.177Z,50.33
2018-10-19T04:40:20.600Z,50.17
2018-10-19T04:42:49.315Z,48.23
2018-10-19T04:45:18.407Z,50.50
2018-10-19T04:47:47.130Z,50.50
2018-10-19T04:50:15.782Z,57.90
2018-10-19T04:52:44.261Z,57.53
2018-10-19T04:55:16.492Z,54.03
2018-10-19T04:57:44.992Z,49.83
2018-10-19T05:00:14.084Z,54.17
2018-10-19T05:02:42.627Z,49.77
2018-10-19T05:05:11.444Z,52.53
2018-10-19T05:07:40.183Z,50.97
2018-10-19T05:10:09.316Z,51.40
2018-10-19T05:12:38.147Z,54.47
2018-10-19T05:15:08.352Z,61.30
2018-10-19T05:17:37.051Z,64.13
2018-10-19T05:20:06.807Z,57.53
2018-10-19T05:22:35.515Z,65.30
2018-10-19T05:25:04.147Z,60.50
2018-10-19T05:27:32.899Z,64.20
2018-10-19T05:30:01.343Z,63.03
2018-10-19T05:32:29.775Z,60.93
2018-10-19T05:34:58.283Z,65.77
2018-10-19T05:37:26.891Z,75.63
2018-10-19T05:39:55.402Z,62.90
2018-10-19T05:42:23.928Z,61.77
2018-10-19T05:44:52.518Z,64.53
2018-10-19T05:47:20.982Z,63.60
2018-10-19T05:49:49.449Z,57.97
2018-10-19T05:52:17.908Z,63.10
2018-10-19T05:54:46.420Z,52.23
2018-10-19T05:57:14.901Z,54.90
2018-10-19T05:59:43.585Z,56.10
2018-10-19T06:02:12.341Z,50.87
2018-10-19T06:04:40.973Z,56.30
2018-10-19T06:07:09.473Z,60.00
2018-10-19T06:09:38.014Z,55.67
2018-10-19T06:12:06.754Z,59.43
2018-10-19T06:14:35.301Z,67.80
2018-10-19T06:17:03.772Z,59.50
2018-10-19T06:19:32.390Z,58.43
2018-10-19T06:22:00.840Z,66.63
2018-10-19T06:24:29.336Z,62.87
2018-10-19T06:26:57.783Z,62.93
2018-10-19T06:29:26.243Z,62.10
2018-10-19T06:31:54.677Z,68.00
2018-10-19T06:34:23.245Z,63.43
2018-10-19T06:36:51.711Z,65.77
2018-10-19T06:39:20.170Z,62.67
2018-10-19T06:41:48.713Z,64.00
2018-10-19T06:44:17.305Z,75.10
2018-10-19T06:46:45.853Z,65.70
2018-10-19T06:49:14.614Z,67.13
2018-10-19T06:51:43.172Z,61.10
2018-10-19T06:54:11.793Z,61.53
2018-10-19T06:56:40.243Z,58.23
2018-10-19T06:59:08.892Z,61.90
2018-10-19T07:01:37.423Z,67.13
2018-10-19T07:04:06.151Z,69.83
2018-10-19T07:06:34.623Z,69.00
2018-10-19T07:09:03.387Z,61.10
2018-10-19T07:11:31.817Z,63.23
2018-10-19T07:14:00.255Z,64.87
2018-10-19T07:16:28.738Z,64.73
2018-10-19T07:18:57.157Z,63.97
2018-10-19T07:21:25.916Z,55.63
2018-10-19T07:23:54.358Z,55.87
2018-10-19T07:26:22.801Z,53.97
2018-10-19T07:28:51.202Z,49.87
2018-10-19T07:31:19.633Z,54.53
2018-10-19T07:33:48.079Z,51.40
2018-10-19T07:36:16.657Z,50.73
2018-10-19T07:38:45.267Z,49.23
2018-10-19T07:41:13.906Z,50.77
2018-10-19T07:43:42.483Z,50.03
2018-10-19T07:46:11.007Z,56.43
2018-10-19T07:48:39.454Z,52.67
2018-10-19T07:51:07.983Z,59.27
2018-10-19T07:53:36.410Z,61.63
2018-10-19T07:56:06.021Z,51.97
2018-10-19T07:58:34.638Z,55.40
2018-10-19T08:01:03.130Z,52.23
2018-10-19T08:03:31.824Z,53.53
2018-10-19T08:06:00.278Z,48.63
2018-10-19T08:08:28.760Z,46.93
2018-10-19T08:10:57.361Z,52.10
2018-10-19T08:13:26.342Z,48.60
2018-10-19T08:15:54.779Z,53.30
2018-10-19T08:18:23.220Z,51.30
2018-10-19T08:20:51.634Z,52.73
2018-10-19T08:23:20.067Z,55.17
2018-10-19T08:25:48.618Z,53.77
2018-10-19T08:28:17.040Z,51.53
2018-10-19T08:30:45.510Z,48.97
2018-10-19T08:33:14.101Z,57.10
2018-10-19T08:35:42.771Z,52.40
2018-10-19T08:38:11.274Z,56.17
2018-10-19T08:40:39.879Z,56.13
2018-10-19T08:43:08.428Z,60.70
2018-10-19T08:45:37.007Z,61.13
2018-10-19T08:48:05.435Z,62.10
2018-10-19T08:50:33.924Z,59.90
2018-10-19T08:53:02.452Z,71.03
2018-10-19T08:55:31.092Z,67.83
2018-10-19T08:57:59.827Z,69.77
2018-10-19T09:00:28.388Z,66.63
2018-10-19T09:02:56.870Z,72.27
2018-10-19T09:05:25.528Z,64.63
2018-10-19T09:07:53.979Z,66.63
2018-10-19T09:10:22.579Z,68.30
2018-10-19T09:12:51.105Z,68.33
2018-10-19T09:15:19.877Z,64.57
2018-10-19T09:17:48.346Z,68.60
2018-10-19T09:20:16.841Z,67.30
2018-10-19T09:22:45.411Z,64.57
2018-10-19T09:25:13.855Z,70.77
2018-10-19T09:27:42.331Z,68.03
2018-10-19T09:30:10.825Z,70.33
2018-10-19T09:32:39.406Z,62.63
2018-10-19T09:35:08.099Z,65.63
2018-10-19T09:37:36.804Z,67.73
2018-10-19T09:40:05.409Z,60.33
2018-10-19T09:42:34.058Z,68.37
2018-10-19T09:45:02.543Z,65.67
2018-10-19T09:47:31.147Z,77.80
2018-10-19T09:49:59.781Z,67.43
2018-10-19T09:52:28.286Z,75.63
2018-10-19T09:54:56.993Z,64.73
2018-10-19T09:57:25.651Z,64.07
2018-10-19T09:59:54.139Z,63.17
2018-10-19T10:02:22.701Z,61.27
2018-10-19T10:04:51.107Z,64.40
2018-10-19T10:07:19.590Z,61.10
2018-10-19T10:09:48.042Z,59.00
2018-10-19T10:12:16.492Z,62.27
2018-10-19T10:14:44.957Z,114.10
2018-10-19T10:17:13.673Z,63.20
2018-10-19T10:19:42.209Z,57.93
2018-10-19T10:22:10.687Z,64.60
2018-10-19T10:24:39.339Z,61.53
2018-10-19T10:27:07.935Z,62.03
2018-10-19T10:29:36.465Z,61.37
2018-10-19T10:32:05.067Z,62.00
2018-10-19T10:34:33.716Z,60.77
2018-10-19T10:37:02.395Z,62.83
2018-10-19T10:39:30.965Z,69.37
2018-10-19T10:41:59.406Z,63.20
2018-10-19T10:44:27.863Z,63.37
2018-10-19T10:46:56.431Z,62.10
2018-10-19T10:49:25.036Z,62.80
2018-10-19T10:51:53.721Z,64.30
2018-10-19T10:54:22.394Z,62.30
2018-10-19T10:56:51.124Z,57.40
2018-10-19T10:59:19.580Z,61.37
2018-10-19T11:01:48.018Z,65.50
2018-10-19T11:04:16.515Z,59.37
2018-10-19T11:06:45.082Z,68.10
2018-10-19T11:09:13.483Z,65.33
2018-10-19T11:11:41.919Z,66.67
2018-10-19T11:14:10.422Z,63.97
2018-10-19T11:16:38.970Z,63.30
2018-10-19T11:19:07.468Z,64.03
2018-10-19T11:21:36.050Z,67.50
2018-10-19T11:24:04.566Z,67.83
2018-10-19T11:26:33.110Z,72.60
2018-10-19T11:29:01.556Z,71.20
2018-10-19T11:31:29.978Z,71.30
2018-10-19T11:33:58.451Z,66.70
2018-10-19T11:36:27.059Z,65.70
2018-10-19T11:38:55.575Z,69.53
2018-10-19T11:41:24.007Z,74.00
2018-10-19T11:43:52.604Z,67.37
2018-10-19T11:46:21.058Z,69.47
2018-10-19T11:48:49.613Z,63.20
2018-10-19T11:51:18.160Z,65.40
2018-10-19T11:53:46.594Z,70.63
2018-10-19T11:56:15.023Z,66.77
2018-10-19T11:58:43.586Z,68.03
2018-10-19T12:01:12.372Z,67.37
2018-10-19T12:03:41.018Z,65.63
2018-10-19T12:06:09.663Z,65.97
2018-10-19T12:08:38.147Z,65.47
2018-10-19T12:11:06.587Z,64.17
2018-10-19T12:13:35.039Z,65.17
2018-10-19T12:16:03.552Z,68.03
2018-10-19T12:18:32.091Z,65.03
2018-10-19T12:21:00.590Z,63.63
2018-10-19T12:23:29.158Z,62.07
2018-10-19T12:25:57.948Z,62.70
2018-10-19T12:28:26.542Z,62.23
2018-10-19T12:30:55.049Z,60.03
2018-10-19T12:33:23.516Z,56.07
2018-10-19T12:35:52.020Z,51.93
2018-10-19T12:38:20.459Z,50.50
2018-10-19T12:40:48.983Z,49.90
2018-10-19T12:43:17.545Z,50.57
2018-10-19T12:46:23.486Z,44.50
2018-10-19T12:48:52.138Z,42.73
2018-10-19T12:51:21.244Z,48.70
2018-10-19T12:53:49.752Z,46.17
2018-10-19T12:56:19.303Z,44.90
2018-10-19T12:58:48.800Z,47.07
2018-10-19T13:01:17.369Z,47.83
2018-10-19T13:03:45.928Z,43.87
2018-10-19T13:06:14.416Z,46.57
2018-10-19T13:08:42.892Z,44.10
2018-10-19T13:11:11.352Z,43.63
2018-10-19T13:13:39.783Z,42.43
2018-10-19T13:16:08.244Z,42.90
2018-10-19T13:18:36.830Z,42.07
2018-10-19T13:21:05.334Z,40.10
2018-10-19T13:23:34.315Z,41.37
2018-10-19T13:26:03.000Z,41.37
2018-10-19T13:28:31.553Z,45.17
2018-10-19T13:30:59.998Z,41.47
2018-10-19T13:33:28.506Z,40.30
2018-10-19T13:35:57.071Z,50.63
2018-10-19T13:38:25.851Z,42.03
2018-10-19T13:40:55.026Z,42.57
2018-10-19T13:43:23.843Z,40.73
2018-10-19T13:45:52.707Z,38.27
2018-10-19T13:48:21.940Z,40.70
2018-10-19T13:50:50.559Z,43.33
2018-10-19T13:53:19.023Z,42.67
2018-10-19T13:55:47.577Z,43.40
2018-10-19T13:58:20.279Z,43.97
2018-10-19T14:00:48.943Z,41.97
2018-10-19T14:03:17.403Z,44.83
2018-10-19T14:05:45.894Z,44.13
2018-10-19T14:08:14.577Z,45.77
2018-10-19T14:10:43.031Z,44.83
2018-10-19T14:13:11.495Z,47.63
2018-10-19T14:15:40.023Z,47.73
2018-10-19T14:18:09.371Z,52.77
2018-10-19T14:20:37.822Z,50.73
2018-10-19T14:23:06.540Z,49.90
2018-10-19T14:25:35.183Z,43.83
2018-10-19T14:28:03.604Z,44.20
2018-10-19T14:30:32.142Z,51.33
2018-10-19T14:33:00.691Z,49.30
2018-10-19T14:35:29.337Z,51.70
2018-10-19T14:37:57.797Z,59.30
2018-10-19T14:40:26.335Z,48.30
2018-10-19T14:42:54.821Z,45.30
2018-10-19T14:45:23.783Z,46.17
2018-10-19T14:47:52.260Z,44.33
2018-10-19T14:50:20.703Z,44.63
2018-10-19T14:52:50.518Z,43.20
2018-10-19T14:55:19.647Z,52.07
2018-10-19T14:57:48.118Z,42.47
2018-10-19T15:00:18.544Z,45.12
2018-10-19T15:02:47.722Z,42.35
2018-10-19T15:05:18.062Z,46.65
2018-10-19T15:07:47.106Z,45.10
2018-10-19T15:10:17.954Z,45.55
2018-10-19T15:12:46.934Z,47.10
2018-10-19T15:15:17.695Z,45.60
2018-10-19T15:17:46.953Z,43.73
2018-10-19T15:20:15.922Z,46.00
2018-10-19T15:22:44.654Z,45.77
2018-10-19T15:25:13.230Z,45.03
2018-10-19T15:27:42.980Z,46.03
2018-10-19T15:30:12.891Z,47.80
2018-10-19T15:32:41.716Z,45.93
2018-10-19T15:35:10.560Z,50.80
2018-10-19T15:37:39.072Z,54.00
2018-10-19T15:40:08.353Z,52.97
2018-10-19T15:42:36.821Z,50.50
2018-10-19T15:45:06.924Z,47.93
2018-10-19T15:47:35.565Z,55.27
2018-10-19T15:50:04.017Z,53.90
2018-10-19T15:52:32.460Z,51.67
2018-10-19T15:55:01.061Z,78.60
2018-10-19T15:57:29.817Z,68.23
2018-10-19T15:59:58.368Z,56.40
2018-10-19T16:02:26.984Z,55.63
2018-10-19T16:04:55.394Z,55.60
2018-10-19T16:07:23.833Z,57.43
2018-10-19T16:09:52.282Z,58.57
2018-10-19T16:12:20.714Z,55.60
2018-10-19T16:14:49.159Z,54.73
2018-10-19T16:17:17.571Z,56.23
2018-10-19T16:19:46.127Z,57.50
2018-10-19T16:22:14.689Z,58.17
2018-10-19T16:24:43.111Z,59.03
2018-10-19T16:27:11.647Z,58.77
2018-10-19T16:29:40.294Z,59.30
2018-10-19T16:32:09.260Z,56.83
2018-10-19T16:34:37.698Z,62.13
2018-10-19T16:37:06.333Z,64.63
2018-10-19T16:39:34.896Z,66.80
2018-10-19T16:42:03.493Z,57.33
2018-10-19T16:44:32.028Z,64.20
2018-10-19T16:47:00.506Z,62.40
2018-10-19T16:49:28.989Z,61.33
2018-10-19T16:51:57.531Z,62.90
2018-10-19T16:54:26.088Z,64.10
2018-10-19T16:56:54.619Z,59.97
2018-10-19T16:59:23.109Z,59.70
2018-10-19T17:01:51.662Z,57.57
2018-10-19T17:04:20.135Z,123.70
2018-10-19T17:06:48.671Z,82.23
2018-10-19T17:09:17.307Z,87.77
2018-10-19T17:11:45.978Z,90.30
2018-10-19T17:14:15.311Z,84.47
2018-10-19T17:16:44.017Z,87.23
2018-10-19T17:19:12.689Z,79.07
2018-10-19T17:21:41.289Z,67.70
2018-10-19T17:24:09.767Z,77.67
2018-10-19T17:26:38.465Z,82.10
2018-10-19T17:29:07.005Z,98.43
2018-10-19T17:31:36.379Z,108.73
2018-10-19T17:34:04.862Z,86.43
2018-10-19T17:36:33.357Z,81.87
2018-10-19T17:39:01.856Z,78.47
2018-10-19T17:41:30.515Z,82.10
2018-10-19T17:43:59.039Z,68.73
2018-10-19T17:46:27.505Z,63.47
2018-10-19T17:48:56.007Z,65.17
2018-10-19T17:51:24.827Z,64.23
2018-10-19T17:53:53.370Z,65.53
2018-10-19T17:56:21.955Z,92.83
2018-10-19T17:58:50.494Z,93.53
2018-10-19T18:01:18.952Z,89.73
2018-10-19T18:03:47.595Z,91.43
2018-10-19T18:06:16.381Z,92.03
2018-10-19T18:08:45.011Z,116.00
2018-10-19T18:11:13.640Z,101.83
2018-10-19T18:13:42.244Z,105.80
2018-10-19T18:16:11.270Z,95.03
2018-10-19T18:18:39.965Z,74.87
2018-10-19T18:21:08.649Z,72.27
2018-10-19T18:23:37.272Z,62.00
2018-10-19T18:26:06.087Z,65.67
2018-10-19T18:28:34.746Z,63.53
2018-10-19T18:31:03.162Z,66.10
2018-10-19T18:33:31.977Z,75.00
2018-10-19T18:36:01.142Z,67.87
2018-10-19T18:38:29.603Z,66.77
2018-10-19T18:40:58.107Z,70.77
2018-10-19T18:43:26.657Z,95.60
2018-10-19T18:45:55.139Z,179.40
2018-10-19T18:48:23.557Z,83.03
2018-10-19T18:50:52.005Z,116.13
2018-10-19T18:53:20.751Z,101.83
2018-10-19T18:55:49.385Z,80.20
2018-10-19T18:58:17.830Z,76.27
2018-10-19T19:00:46.332Z,77.33
2018-10-19T19:03:14.876Z,67.43
2018-10-19T19:05:43.289Z,68.07
2018-10-19T19:08:11.807Z,67.80
2018-10-19T19:10:40.392Z,67.80
2018-10-19T19:13:14.162Z,73.97
2018-10-19T19:15:42.638Z,85.80
2018-10-19T19:18:11.084Z,88.10
2018-10-19T19:20:39.579Z,88.47
2018-10-19T19:23:08.117Z,84.20
2018-10-19T19:25:42.021Z,84.57
2018-10-19T19:28:10.527Z,71.23
2018-10-19T19:30:39.289Z,79.27
2018-10-19T19:33:13.039Z,81.20
2018-10-19T19:35:41.508Z,69.83
2018-10-19T19:38:10.042Z,67.90
2018-10-19T19:40:44.041Z,71.87
2018-10-19T19:43:12.503Z,71.87
2018-10-19T19:45:41.013Z,73.43
2018-10-19T19:48:14.770Z,78.40
2018-10-19T19:50:43.306Z,88.73
2018-10-19T19:53:11.813Z,93.83
2018-10-19T19:55:40.511Z,86.03
2018-10-19T19:58:09.133Z,81.63
2018-10-19T20:00:37.916Z,87.13
2018-10-19T20:03:06.427Z,86.53
2018-10-19T20:05:35.089Z,91.03
2018-10-19T20:08:03.595Z,80.10
2018-10-19T20:10:32.353Z,75.90
2018-10-19T20:13:01.076Z,79.43
2018-10-19T20:15:29.675Z,71.50
2018-10-19T20:17:58.129Z,78.63
2018-10-19T20:20:26.588Z,74.27
2018-10-19T20:22:55.103Z,73.13
2018-10-19T20:25:23.769Z,71.83
2018-10-19T20:27:52.208Z,74.80
2018-10-19T20:30:22.356Z,72.60
2018-10-19T20:32:50.829Z,74.17
2018-10-19T20:35:19.260Z,72.27
2018-10-19T20:37:47.760Z,80.13
2018-10-19T20:40:16.203Z,72.40
2018-10-19T20:42:44.662Z,73.13
2018-10-19T20:45:13.095Z,75.93
2018-10-19T20:47:41.599Z,74.10
2018-10-19T20:50:10.275Z,81.30
2018-10-19T20:52:38.877Z,92.53
2018-10-19T20:55:07.889Z,88.47
2018-10-19T20:57:36.411Z,83.20
2018-10-19T21:00:05.778Z,86.43
2018-10-19T21:02:34.192Z,86.37
2018-10-19T21:05:02.668Z,78.57
2018-10-19T21:07:31.209Z,74.23
2018-10-19T21:09:59.812Z,73.60
2018-10-19T21:12:28.252Z,75.77
2018-10-19T21:14:56.776Z,73.47
2018-10-19T21:17:25.224Z,74.53
2018-10-19T21:19:53.745Z,78.53
2018-10-19T21:22:22.297Z,69.37
2018-10-19T21:24:50.777Z,77.37
2018-10-19T21:27:19.262Z,78.17
2018-10-19T21:29:47.721Z,77.10
2018-10-19T21:32:16.377Z,77.00
2018-10-19T21:34:44.980Z,74.37
2018-10-19T21:37:13.386Z,76.97
2018-10-19T21:39:41.836Z,76.37
2018-10-19T21:42:10.260Z,77.33
2018-10-19T21:44:38.707Z,76.67
2018-10-19T21:47:07.182Z,68.40
2018-10-19T21:49:35.891Z,76.30
2018-10-19T21:52:04.478Z,72.87
2018-10-19T21:54:32.917Z,71.17
2018-10-19T21:57:01.420Z,69.43
2018-10-19T21:59:29.981Z,77.03
2018-10-19T22:01:58.524Z,70.43
2018-10-19T22:04:27.398Z,71.63
2018-10-19T22:06:55.850Z,77.40
2018-10-19T22:09:24.378Z,72.13
2018-10-19T22:11:52.844Z,78.07
2018-10-19T22:14:21.263Z,77.60
2018-10-19T22:16:49.717Z,73.83
2018-10-19T22:19:18.143Z,73.43
2018-10-19T22:21:46.655Z,70.27
2018-10-19T22:24:15.111Z,71.77
2018-10-19T22:26:43.674Z,76.40
2018-10-19T22:29:12.427Z,78.20
2018-10-19T22:31:41.137Z,75.33
2018-10-19T22:34:09.543Z,71.07
2018-10-19T22:36:38.032Z,72.77
2018-10-19T22:39:07.636Z,77.47
2018-10-19T22:41:36.412Z,71.83
2018-10-19T22:44:05.168Z,74.70
2018-10-19T22:46:33.619Z,73.47
2018-10-19T22:49:02.169Z,73.77
2018-10-19T22:51:30.780Z,77.07
2018-10-19T22:53:59.237Z,68.07
2018-10-19T22:56:27.689Z,74.40
2018-10-19T22:58:56.268Z,71.50
2018-10-19T23:01:24.987Z,77.33
2018-10-19T23:03:53.482Z,73.43
2018-10-19T23:06:21.935Z,79.00
2018-10-19T23:08:50.337Z,75.87
2018-10-19T23:11:18.925Z,77.23
2018-10-19T23:13:47.526Z,74.20
2018-10-19T23:16:15.976Z,75.03
2018-10-19T23:18:44.452Z,73.80
2018-10-19T23:21:12.895Z,77.20
2018-10-19T23:23:41.417Z,76.83
2018-10-19T23:26:09.891Z,80.00
2018-10-19T23:28:38.327Z,76.70
2018-10-19T23:31:06.839Z,72.87
2018-10-19T23:33:35.480Z,73.67
2018-10-19T23:36:03.950Z,72.50
2018-10-19T23:38:32.403Z,71.80
2018-10-19T23:41:01.537Z,71.77
2018-10-19T23:43:30.483Z,76.23
2018-10-19T23:45:58.976Z,75.43
2018-10-19T23:48:27.467Z,76.83
2018-10-19T23:50:55.959Z,70.60
2018-10-19T23:53:24.415Z,75.70
2018-10-19T23:55:52.863Z,73.47
2018-10-19T23:58:21.437Z,74.03
